San Juan Enterprise — WDD9563 — position and weather

sailwx.info

Track history (hours):
 
Tides and Currents Weather Stations Pressure Air Temp Water Temp Dewpoint Dewpoint Depression Visibility Wind Speed Wind Dir Waves Ship Positions

San Juan Enterprise

Owner: SAN JUAN MARINE FREIGHT CO LLC, ANACORTES, WA. More information available from US FCC via Universal Licensing System and Coast Guard Vessel Documentation Center.

Last reported at 2017-Aug-19 04:36 UTC. Time now 2017-Aug-19 05:30 UTC.
Position N 48°31' W 122°36'.

Length 30 m.

MMSI: 367313160.

Date/timePositionNaut miles runAvg speedWind from/ knotsBaromVisibWave heightAir tempDewpointWater temp
2017-Aug-19 04:36N 48°31' W 122°36'0 0.1
2017-Aug-19 04:07N 48°31' W 122°36'1 6.8
2017-Aug-19 03:59N 48°31' W 122°38'4 8.4
2017-Aug-19 03:30N 48°32' W 122°44'5 9.3
2017-Aug-19 03:00N 48°35' W 122°49'0 0.5
2017-Aug-19 02:30N 48°35' W 122°49'3 6.5
2017-Aug-19 02:00N 48°35' W 122°54'5 9.0
2017-Aug-19 01:30N 48°35' W 123°01'2 3.7
2017-Aug-19 01:00N 48°36' W 123°03'4 8.5
2017-Aug-19 00:30N 48°39' W 123°08'2 4.1
2017-Aug-19 00:00N 48°40' W 123°11'4 8.2
2017-Aug-18 23:29N 48°38' W 123°05'4 8.4
2017-Aug-18 23:00N 48°36' W 122°60'5 9.2
2017-Aug-18 22:30N 48°35' W 122°53'5 9.2
2017-Aug-18 22:00N 48°32' W 122°48'4 8.4
2017-Aug-18 21:30N 48°32' W 122°41'3 3.0
2017-Aug-18 20:21N 48°31' W 122°36'3 8.9
2017-Aug-18 20:00N 48°33' W 122°41'1 1.3
2017-Aug-18 19:28N 48°33' W 122°41'0 0.0
2017-Aug-18 19:00N 48°33' W 122°41'0 0.0
2017-Aug-18 18:30N 48°33' W 122°41'1 1.8
2017-Aug-18 17:59N 48°33' W 122°40'2 4.4
2017-Aug-18 17:25N 48°31' W 122°37'0 0.0
2017-Aug-18 16:55N 48°31' W 122°37'0 0.1
2017-Aug-18 16:30N 48°31' W 122°37'0 0.1
2017-Aug-18 16:00N 48°31' W 122°37'0 0.7
2017-Aug-18 15:30N 48°31' W 122°36'0 0.0
2017-Aug-18 14:58N 48°31' W 122°36'0 0.0
2017-Aug-18 14:29N 48°31' W 122°36'0 0.0
2017-Aug-18 13:30N 48°31' W 122°36'0 0.0
2017-Aug-18 13:00N 48°31' W 122°36'0 0.0
2017-Aug-18 12:30N 48°31' W 122°36'0 0.0
2017-Aug-18 11:58N 48°31' W 122°36'0 0.0
2017-Aug-18 11:30N 48°31' W 122°36'0 0.0
2017-Aug-18 11:00N 48°31' W 122°36'0 0.0
2017-Aug-18 10:30N 48°31' W 122°36'0 0.0
2017-Aug-18 10:00N 48°31' W 122°36'0 0.0
2017-Aug-18 09:29N 48°31' W 122°36'0 0.0
2017-Aug-18 09:00N 48°31' W 122°36'0 0.0
2017-Aug-18 08:30N 48°31' W 122°36'0 0.0
2017-Aug-18 08:01N 48°31' W 122°36'0 0.0
2017-Aug-18 07:30N 48°31' W 122°36'0 0.0
2017-Aug-18 07:00N 48°31' W 122°36'0 0.0
2017-Aug-18 06:30N 48°31' W 122°36'0 0.0
2017-Aug-18 06:00N 48°31' W 122°36'0 0.0
2017-Aug-18 05:30N 48°31' W 122°36'0 0.0
2017-Aug-18 05:00N 48°31' W 122°36'0 0.0
2017-Aug-18 03:47N 48°31' W 122°36'0 0.0
2017-Aug-18 03:30N 48°31' W 122°36'0 0.0
2017-Aug-18 03:00N 48°31' W 122°36'0 0.0
2017-Aug-18 02:30N 48°31' W 122°36'0 0.0
2017-Aug-18 02:00N 48°31' W 122°36'0 0.0
2017-Aug-18 01:30N 48°31' W 122°36'0 0.0
2017-Aug-18 01:00N 48°31' W 122°36'0 0.0
2017-Aug-18 00:30N 48°31' W 122°36'0 0.0
2017-Aug-18 00:00N 48°31' W 122°36'0 0.0
2017-Aug-17 23:30N 48°31' W 122°36'0 0.0
2017-Aug-17 23:00N 48°31' W 122°36'0 0.0
2017-Aug-17 22:29N 48°31' W 122°36'2 3.4
2017-Aug-17 21:59N 48°31' W 122°39'2 3.3
2017-Aug-17 21:17N 48°33' W 122°41'2 8.0
2017-Aug-17 21:00N 48°32' W 122°39'2 3.3
2017-Aug-17 20:30N 48°31' W 122°36'4 7.4
2017-Aug-17 20:00N 48°31' W 122°42'4 8.8
2017-Aug-17 19:30N 48°32' W 122°48'4 8.2
2017-Aug-17 19:01N 48°34' W 122°53'4 8.5
2017-Aug-17 18:30N 48°32' W 122°59'1 2.1
2017-Aug-17 18:00N 48°32' W 123°00'0 0.1
2017-Aug-17 17:30N 48°32' W 122°60'0 0.0
2017-Aug-17 17:00N 48°32' W 122°60'3 5.2
2017-Aug-17 16:30N 48°33' W 122°56'3 6.7
2017-Aug-17 16:00N 48°34' W 122°51'4 8.3
2017-Aug-17 15:30N 48°32' W 122°46'5 8.9
2017-Aug-17 15:00N 48°32' W 122°39'2 2.0
2017-Aug-17 14:07N 48°31' W 122°36'0 0.0
2017-Aug-17 13:43N 48°31' W 122°36'0 0.0
2017-Aug-17 13:25N 48°31' W 122°36'0 0.0
2017-Aug-17 12:49N 48°31' W 122°36'0 0.0
2017-Aug-17 12:25N 48°31' W 122°36'0 0.0
2017-Aug-17 11:55N 48°31' W 122°36'0 0.0
2017-Aug-17 11:07N 48°31' W 122°36'0 0.0
2017-Aug-17 10:55N 48°31' W 122°36'0 0.0
2017-Aug-17 10:13N 48°31' W 122°36'0 0.0
2017-Aug-17 09:43N 48°31' W 122°36'0 0.0
2017-Aug-17 09:19N 48°31' W 122°36'0 0.0
2017-Aug-17 08:55N 48°31' W 122°36'0 0.0
2017-Aug-17 07:49N 48°31' W 122°36'0 0.0
2017-Aug-17 07:25N 48°31' W 122°36'0 0.0
2017-Aug-17 06:49N 48°31' W 122°36'0 0.0
2017-Aug-17 06:07N 48°31' W 122°36'0 0.0
2017-Aug-17 04:49N 48°31' W 122°36'0 0.0
2017-Aug-17 04:25N 48°31' W 122°36'0 0.0
2017-Aug-17 03:13N 48°31' W 122°36'0 0.0
2017-Aug-17 03:00N 48°31' W 122°36'1 2.5
2017-Aug-17 02:30N 48°31' W 122°38'4 8.2
2017-Aug-17 02:00N 48°35' W 122°41'2 4.0
2017-Aug-17 01:30N 48°37' W 122°42'0 0.0
2017-Aug-17 01:00N 48°37' W 122°42'3 5.5
2017-Aug-17 00:30N 48°36' W 122°46'1 1.6
2017-Aug-17 00:00N 48°36' W 122°47'4 7.0
2017-Aug-16 23:30N 48°37' W 122°42'0 0.0
2017-Aug-16 22:59N 48°37' W 122°42'2 5.1
2017-Aug-16 22:30N 48°36' W 122°45'2 3.7
2017-Aug-16 22:00N 48°36' W 122°48'4 8.7
2017-Aug-16 21:30N 48°37' W 122°42'3 6.6
2017-Aug-16 21:00N 48°34' W 122°40'3 6.7
2017-Aug-16 20:30N 48°31' W 122°37'1 1.2
2017-Aug-16 20:00N 48°31' W 122°37'5 9.9
2017-Aug-16 19:30N 48°31' W 122°45'4 8.5
2017-Aug-16 19:00N 48°33' W 122°51'3 6.4
2017-Aug-16 18:30N 48°33' W 122°55'3 6.6
2017-Aug-16 18:00N 48°32' W 122°60'2 3.2
2017-Aug-16 17:30N 48°33' W 122°58'3 6.4
2017-Aug-16 17:00N 48°33' W 122°53'1 2.0
2017-Aug-16 16:30N 48°33' W 122°55'4 7.4
2017-Aug-16 16:00N 48°32' W 122°60'3 6.2
2017-Aug-16 15:30N 48°33' W 122°56'3 6.6
2017-Aug-16 15:00N 48°33' W 122°51'4 7.6
2017-Aug-16 14:30N 48°32' W 122°45'4 8.6
2017-Aug-16 14:00N 48°32' W 122°39'2 3.2
2017-Aug-16 13:30N 48°31' W 122°36'0 0.0
2017-Aug-16 12:59N 48°31' W 122°36'0 0.0
2017-Aug-16 12:29N 48°31' W 122°36'0 0.0
2017-Aug-16 11:59N 48°31' W 122°36'0 0.0
2017-Aug-16 11:29N 48°31' W 122°36'0 0.0
2017-Aug-16 09:47N 48°31' W 122°36'0 0.0
2017-Aug-16 09:23N 48°31' W 122°36'0 0.0
2017-Aug-16 08:59N 48°31' W 122°36'0 0.0
2017-Aug-16 08:17N 48°31' W 122°36'0 0.0
2017-Aug-16 07:47N 48°31' W 122°36'0 0.0
2017-Aug-16 06:02N 48°31' W 122°36'0 0.0
2017-Aug-16 05:53N 48°31' W 122°36'0 0.0
2017-Aug-16 05:29N 48°31' W 122°36'0 0.0
2017-Aug-16 04:05N 48°31' W 122°36'0 0.1
2017-Aug-16 03:59N 48°31' W 122°36'0 0.0
2017-Aug-16 03:20N 48°31' W 122°36'0 0.0
2017-Aug-16 00:29N 48°31' W 122°36'0 0.0
2017-Aug-16 00:01N 48°31' W 122°36'3 5.0
2017-Aug-15 23:28N 48°32' W 122°40'4 7.7
2017-Aug-15 23:01N 48°34' W 122°45'4 7.5
2017-Aug-15 22:30N 48°36' W 122°49'3 6.3
2017-Aug-15 22:01N 48°33' W 122°50'3 3.5
2017-Aug-15 21:17N 48°31' W 122°50'2 8.8
2017-Aug-15 21:00N 48°33' W 122°50'3 5.2
2017-Aug-15 20:31N 48°36' W 122°49'4 8.5
2017-Aug-15 20:00N 48°32' W 122°50'1 1.7
2017-Aug-15 19:30N 48°31' W 122°50'1 2.4
2017-Aug-15 19:00N 48°32' W 122°50'4 8.5
2017-Aug-15 18:31N 48°36' W 122°49'0 0.4
2017-Aug-15 18:00N 48°36' W 122°49'0 0.0
2017-Aug-15 17:31N 48°36' W 122°49'1 2.0
2017-Aug-15 17:00N 48°35' W 122°49'4 6.5
2017-Aug-15 16:19N 48°31' W 122°50'3 8.2
2017-Aug-15 16:00N 48°33' W 122°50'3 5.9
2017-Aug-15 15:30N 48°36' W 122°49'1 2.5
2017-Aug-15 15:01N 48°35' W 122°49'2 4.7
2017-Aug-15 14:30N 48°34' W 122°46'4 8.5
2017-Aug-15 14:00N 48°32' W 122°40'3 4.9
2017-Aug-15 13:27N 48°31' W 122°36'0 0.0
2017-Aug-15 12:48N 48°31' W 122°36'0 0.0
2017-Aug-15 12:12N 48°31' W 122°36'0 0.0
2017-Aug-15 11:55N 48°31' W 122°36'0 0.0
2017-Aug-15 11:30N 48°31' W 122°36'0 0.0
2017-Aug-15 11:00N 48°31' W 122°36'0 0.0
2017-Aug-15 10:30N 48°31' W 122°36'0 0.0
2017-Aug-15 07:15N 48°31' W 122°36'0 0.0
2017-Aug-15 06:54N 48°31' W 122°36'0 0.0
2017-Aug-15 05:39N 48°31' W 122°36'0 0.0
2017-Aug-15 05:30N 48°31' W 122°36'0 0.0
2017-Aug-15 04:54N 48°31' W 122°36'0 0.0
2017-Aug-15 04:24N 48°31' W 122°36'0 0.0
2017-Aug-15 03:54N 48°31' W 122°36'0 0.0
2017-Aug-15 03:30N 48°31' W 122°36'0 0.0
2017-Aug-15 03:00N 48°31' W 122°36'0 0.0
2017-Aug-15 02:30N 48°31' W 122°36'0 0.0
2017-Aug-15 02:00N 48°31' W 122°36'0 0.0
2017-Aug-15 01:24N 48°31' W 122°36'0 0.0
2017-Aug-15 00:54N 48°31' W 122°36'0 0.0
2017-Aug-14 23:42N 48°31' W 122°36'0 0.0
2017-Aug-14 23:12N 48°31' W 122°36'0 0.0
2017-Aug-14 23:00N 48°31' W 122°36'0 0.0
2017-Aug-14 22:18N 48°31' W 122°36'0 0.0
2017-Aug-14 22:00N 48°31' W 122°36'0 0.0
2017-Aug-14 21:30N 48°31' W 122°36'0 0.0
2017-Aug-14 18:54N 48°31' W 122°36'0 0.0
2017-Aug-14 18:30N 48°31' W 122°36'0 0.0
2017-Aug-14 17:56N 48°31' W 122°36'0 0.0
2017-Aug-14 17:30N 48°31' W 122°36'1 2.6
2017-Aug-14 17:00N 48°31' W 122°38'4 9.2
2017-Aug-14 16:31N 48°31' W 122°45'3 6.5
2017-Aug-14 16:01N 48°31' W 122°50'2 4.1
2017-Aug-14 15:30N 48°33' W 122°50'3 6.8
2017-Aug-14 15:00N 48°36' W 122°49'3 5.9
2017-Aug-14 14:31N 48°34' W 122°46'3 6.5
2017-Aug-14 14:00N 48°33' W 122°41'4 7.1
2017-Aug-14 13:29N 48°31' W 122°36'0 0.0
2017-Aug-14 12:47N 48°31' W 122°36'0 0.0
2017-Aug-14 12:29N 48°31' W 122°36'0 0.0
2017-Aug-14 11:59N 48°31' W 122°36'0 0.0
2017-Aug-14 11:29N 48°31' W 122°36'0 0.0
2017-Aug-14 10:53N 48°31' W 122°36'0 0.0
2017-Aug-14 10:29N 48°31' W 122°36'0 0.0
2017-Aug-14 09:53N 48°31' W 122°36'0 0.0
2017-Aug-14 09:17N 48°31' W 122°36'0 0.0
2017-Aug-14 08:41N 48°31' W 122°36'0 0.0
2017-Aug-14 08:17N 48°31' W 122°36'0 0.0
2017-Aug-14 07:29N 48°31' W 122°36'0 0.0
2017-Aug-14 06:59N 48°31' W 122°36'0 0.0
2017-Aug-14 06:23N 48°31' W 122°36'0 0.0
2017-Aug-14 05:53N 48°31' W 122°36'0 0.0
2017-Aug-14 05:19N 48°31' W 122°36'0 0.0
2017-Aug-14 04:58N 48°31' W 122°36'0 0.0
2017-Aug-14 04:22N 48°31' W 122°36'0 0.0
2017-Aug-14 03:43N 48°31' W 122°36'0 0.0
2017-Aug-14 01:58N 48°31' W 122°36'0 0.0
2017-Aug-14 01:22N 48°31' W 122°36'0 0.0
2017-Aug-13 23:58N 48°31' W 122°36'0 0.0
2017-Aug-13 22:46N 48°31' W 122°36'0 0.0
2017-Aug-13 22:28N 48°31' W 122°36'0 0.0
2017-Aug-13 21:58N 48°31' W 122°36'0 0.0
2017-Aug-13 21:28N 48°31' W 122°36'0 0.0
2017-Aug-13 20:52N 48°31' W 122°36'0 0.0
2017-Aug-13 20:22N 48°31' W 122°36'0 0.0
2017-Aug-13 19:46N 48°31' W 122°36'0 0.0
2017-Aug-13 19:28N 48°31' W 122°36'0 0.0
2017-Aug-13 18:58N 48°31' W 122°36'0 0.0
2017-Aug-13 18:28N 48°31' W 122°36'0 0.0
2017-Aug-13 17:58N 48°31' W 122°36'0 0.0
2017-Aug-13 17:28N 48°31' W 122°36'0 0.0
2017-Aug-13 16:58N 48°31' W 122°36'0 0.0
2017-Aug-13 16:28N 48°31' W 122°36'0 0.0
2017-Aug-13 15:58N 48°31' W 122°36'0 0.0
2017-Aug-13 15:28N 48°31' W 122°36'0 0.0
2017-Aug-13 14:58N 48°31' W 122°36'0 0.0
2017-Aug-13 14:28N 48°31' W 122°36'0 0.0
2017-Aug-13 13:58N 48°31' W 122°36'0 0.0
2017-Aug-13 13:28N 48°31' W 122°36'0 0.0
2017-Aug-13 12:58N 48°31' W 122°36'0 0.0
2017-Aug-13 12:28N 48°31' W 122°36'0 0.0
2017-Aug-13 11:58N 48°31' W 122°36'0 0.0
2017-Aug-13 11:28N 48°31' W 122°36'0 0.0
2017-Aug-13 10:58N 48°31' W 122°36'0 0.0
2017-Aug-13 10:28N 48°31' W 122°36'0 0.0
2017-Aug-13 09:58N 48°31' W 122°36'0 0.0
2017-Aug-13 09:28N 48°31' W 122°36'0 0.0
2017-Aug-13 08:52N 48°31' W 122°36'0 0.0
2017-Aug-13 08:28N 48°31' W 122°36'0 0.0
2017-Aug-13 07:58N 48°31' W 122°36'0 0.0
2017-Aug-13 07:16N 48°31' W 122°36'0 0.0
2017-Aug-13 06:58N 48°31' W 122°36'0 0.0
2017-Aug-13 06:28N 48°31' W 122°36'0 0.0
2017-Aug-13 05:58N 48°31' W 122°36'0 0.0
2017-Aug-13 05:28N 48°31' W 122°36'0 0.0
2017-Aug-13 04:58N 48°31' W 122°36'0 0.0
2017-Aug-13 04:28N 48°31' W 122°36'0 0.0
2017-Aug-13 03:58N 48°31' W 122°36'0 0.0
2017-Aug-13 03:28N 48°31' W 122°36'0 0.0
2017-Aug-13 02:58N 48°31' W 122°36'0 0.0
2017-Aug-13 02:10N 48°31' W 122°36'0 0.0
2017-Aug-13 01:58N 48°31' W 122°36'0 0.0
2017-Aug-13 01:28N 48°31' W 122°36'0 0.0
2017-Aug-13 00:52N 48°31' W 122°36'0 0.0
2017-Aug-13 00:28N 48°31' W 122°36'0 0.0
2017-Aug-12 23:58N 48°31' W 122°36'0 0.0
2017-Aug-12 23:28N 48°31' W 122°36'0 0.0
2017-Aug-12 22:58N 48°31' W 122°36'0 0.0
2017-Aug-12 22:28N 48°31' W 122°36'0 0.0
2017-Aug-12 21:58N 48°31' W 122°36'0 0.0
2017-Aug-12 21:28N 48°31' W 122°36'0 0.0
2017-Aug-12 20:52N 48°31' W 122°36'0 0.0
2017-Aug-12 20:28N 48°31' W 122°36'0 0.0
2017-Aug-12 19:58N 48°31' W 122°36'0 0.0
2017-Aug-12 19:22N 48°31' W 122°36'0 0.0
2017-Aug-12 18:58N 48°31' W 122°36'0 0.0
2017-Aug-12 18:28N 48°31' W 122°36'0 0.0
2017-Aug-12 17:58N 48°31' W 122°36'0 0.0
2017-Aug-12 17:28N 48°31' W 122°36'0 0.0
2017-Aug-12 16:58N 48°31' W 122°36'0 0.0
2017-Aug-12 16:28N 48°31' W 122°36'0 0.0
2017-Aug-12 15:58N 48°31' W 122°36'0 0.0
2017-Aug-12 15:28N 48°31' W 122°36'0 0.0
2017-Aug-12 14:58N 48°31' W 122°36'0 0.0
2017-Aug-12 14:28N 48°31' W 122°36'0 0.0
2017-Aug-12 13:58N 48°31' W 122°36'0 0.0
2017-Aug-12 13:28N 48°31' W 122°36'0 0.0
2017-Aug-12 12:58N 48°31' W 122°36'0 0.0
2017-Aug-12 12:28N 48°31' W 122°36'0 0.0
2017-Aug-12 11:58N 48°31' W 122°36'0 0.0
2017-Aug-12 11:28N 48°31' W 122°36'0 0.0
2017-Aug-12 10:58N 48°31' W 122°36'0 0.0
2017-Aug-12 10:28N 48°31' W 122°36'0 0.0
2017-Aug-12 09:58N 48°31' W 122°36'0 0.0
2017-Aug-12 09:28N 48°31' W 122°36'0 0.0
2017-Aug-12 08:58N 48°31' W 122°36'0 0.0
2017-Aug-12 08:28N 48°31' W 122°36'0 0.0
2017-Aug-12 07:58N 48°31' W 122°36'0 0.0
2017-Aug-12 07:28N 48°31' W 122°36'0 0.0
2017-Aug-12 06:58N 48°31' W 122°36'0 0.0
2017-Aug-12 06:22N 48°31' W 122°36'0 0.0
2017-Aug-12 05:58N 48°31' W 122°36'0 0.0
2017-Aug-12 05:28N 48°31' W 122°36'0 0.0
2017-Aug-12 04:58N 48°31' W 122°36'0 0.0
2017-Aug-12 04:22N 48°31' W 122°36'0 0.0
2017-Aug-12 03:58N 48°31' W 122°36'0 0.0
2017-Aug-12 03:22N 48°31' W 122°36'0 0.0
2017-Aug-12 02:40N 48°31' W 122°36'0 0.0
2017-Aug-12 02:28N 48°31' W 122°36'0 0.0
2017-Aug-12 01:52N 48°31' W 122°36'0 0.0
2017-Aug-12 01:28N 48°31' W 122°36'0 0.0
2017-Aug-12 00:58N 48°31' W 122°36'0 0.0
2017-Aug-12 00:28N 48°31' W 122°36'0 0.0
2017-Aug-12 00:00N 48°31' W 122°36'0 0.0
2017-Aug-11 23:30N 48°31' W 122°36'0 0.0
2017-Aug-11 23:00N 48°31' W 122°36'0 0.0
2017-Aug-11 22:30N 48°31' W 122°36'0 0.0
2017-Aug-11 22:00N 48°31' W 122°36'0 0.0
2017-Aug-11 21:30N 48°31' W 122°36'0 0.0
2017-Aug-11 21:00N 48°31' W 122°36'0 0.0
2017-Aug-11 20:30N 48°31' W 122°36'0 0.8
2017-Aug-11 20:00N 48°31' W 122°37'3 6.5
2017-Aug-11 19:30N 48°33' W 122°41'0 0.0
2017-Aug-11 19:00N 48°33' W 122°41'0 0.0
2017-Aug-11 18:30N 48°33' W 122°41'1 2.0
2017-Aug-11 18:00N 48°32' W 122°40'2 4.9
2017-Aug-11 17:30N 48°31' W 122°37'0 0.1
2017-Aug-11 17:00N 48°31' W 122°37'0 0.0
2017-Aug-11 16:30N 48°31' W 122°37'0 0.6
2017-Aug-11 16:00N 48°31' W 122°36'0 0.2
2017-Aug-11 15:30N 48°31' W 122°36'0 0.0
2017-Aug-11 15:00N 48°31' W 122°36'0 0.0
2017-Aug-11 14:00N 48°31' W 122°36'0 0.0
2017-Aug-11 13:30N 48°31' W 122°36'0 0.0
2017-Aug-11 13:00N 48°31' W 122°36'0 0.0
2017-Aug-11 12:30N 48°31' W 122°36'0 0.0
2017-Aug-11 12:00N 48°31' W 122°36'0 0.0
2017-Aug-11 11:30N 48°31' W 122°36'0 0.0
2017-Aug-11 11:00N 48°31' W 122°36'0 0.0
2017-Aug-11 10:30N 48°31' W 122°36'0 0.0
2017-Aug-11 10:00N 48°31' W 122°36'0 0.0
2017-Aug-11 09:30N 48°31' W 122°36'0 0.0
2017-Aug-11 09:00N 48°31' W 122°36'0 0.0
2017-Aug-11 08:30N 48°31' W 122°36'0 0.0
2017-Aug-11 08:00N 48°31' W 122°36'0 0.0
2017-Aug-11 07:30N 48°31' W 122°36'0 0.0
2017-Aug-11 07:00N 48°31' W 122°36'0 0.0
2017-Aug-11 06:30N 48°31' W 122°36'0 0.0
2017-Aug-11 06:00N 48°31' W 122°36'0 0.0
2017-Aug-11 05:30N 48°31' W 122°36'0 0.0
2017-Aug-11 05:00N 48°31' W 122°36'0 0.0
2017-Aug-11 04:30N 48°31' W 122°36'0 0.0
2017-Aug-11 04:00N 48°31' W 122°36'0 0.0
2017-Aug-11 03:30N 48°31' W 122°36'0 0.0
2017-Aug-11 03:00N 48°31' W 122°36'0 0.0
2017-Aug-11 02:30N 48°31' W 122°36'0 0.0
2017-Aug-11 02:00N 48°31' W 122°36'0 0.0
2017-Aug-11 01:30N 48°31' W 122°36'0 0.0
2017-Aug-11 01:00N 48°31' W 122°36'0 0.0
2017-Aug-11 00:30N 48°31' W 122°36'0 0.0
2017-Aug-11 00:00N 48°31' W 122°36'0 0.0
2017-Aug-10 23:30N 48°31' W 122°36'0 0.0
2017-Aug-10 23:00N 48°31' W 122°36'0 0.0
2017-Aug-10 22:30N 48°31' W 122°36'0 0.0
2017-Aug-10 22:00N 48°31' W 122°36'0 0.0
2017-Aug-10 21:30N 48°31' W 122°36'0 0.0
2017-Aug-10 21:00N 48°31' W 122°36'0 0.0
2017-Aug-10 20:30N 48°31' W 122°36'0 0.0
2017-Aug-10 20:00N 48°31' W 122°36'0 0.0
2017-Aug-10 19:30N 48°31' W 122°36'0 0.0
2017-Aug-10 19:00N 48°31' W 122°36'0 0.1
2017-Aug-10 18:30N 48°31' W 122°36'1 2.8
2017-Aug-10 18:00N 48°31' W 122°38'5 9.7
2017-Aug-10 17:30N 48°36' W 122°41'1 2.4
2017-Aug-10 17:00N 48°37' W 122°42'0 0.0
2017-Aug-10 16:30N 48°37' W 122°42'0 0.0
2017-Aug-10 16:00N 48°37' W 122°42'0 0.0
2017-Aug-10 15:30N 48°37' W 122°42'0 0.0
2017-Aug-10 15:00N 48°37' W 122°42'4 7.9
2017-Aug-10 14:30N 48°33' W 122°40'3 4.1
2017-Aug-10 13:46N 48°31' W 122°36'0 0.0
2017-Aug-10 12:19N 48°31' W 122°36'0 0.0
2017-Aug-10 11:55N 48°31' W 122°36'0 0.0
2017-Aug-09 21:58N 48°31' W 122°36'3 6.1
2017-Aug-09 21:30N 48°32' W 122°40'4 8.8
2017-Aug-09 21:00N 48°32' W 122°47'4 8.2
2017-Aug-09 20:30N 48°34' W 122°52'4 8.0
2017-Aug-09 20:00N 48°33' W 122°58'2 3.5
2017-Aug-09 19:30N 48°32' W 122°60'0 0.0
2017-Aug-09 19:00N 48°32' W 122°60'0 0.0
2017-Aug-09 18:30N 48°32' W 122°60'0 0.0
2017-Aug-09 18:00N 48°32' W 122°60'0 0.7
2017-Aug-09 17:30N 48°32' W 122°60'4 7.9
2017-Aug-09 17:00N 48°34' W 122°55'4 7.1
2017-Aug-09 16:30N 48°33' W 122°49'4 7.2
2017-Aug-09 16:00N 48°32' W 122°44'  
Track history (hours):
 
Tides and Currents Weather Stations Pressure Air Temp Water Temp Dewpoint Dewpoint Depression Visibility Wind Speed Wind Dir Waves Ship Positions

San Juan Enterprise

Owner: SAN JUAN MARINE FREIGHT CO LLC, ANACORTES, WA. More information available from US FCC via Universal Licensing System and Coast Guard Vessel Documentation Center.

Last reported at 2017-Aug-19 04:36 UTC. Time now 2017-Aug-19 05:30 UTC.
Position N 48°31' W 122°36'.

Length 30 m.

MMSI: 367313160.

Date/timePositionNaut miles runAvg speedWind from/ knotsBaromVisibWave heightAir tempDewpointWater temp
2017-Aug-19 04:36N 48°31' W 122°36'0 0.1
2017-Aug-19 04:07N 48°31' W 122°36'1 6.8
2017-Aug-19 03:59N 48°31' W 122°38'4 8.4
2017-Aug-19 03:30N 48°32' W 122°44'5 9.3
2017-Aug-19 03:00N 48°35' W 122°49'0 0.5
2017-Aug-19 02:30N 48°35' W 122°49'3 6.5
2017-Aug-19 02:00N 48°35' W 122°54'5 9.0
2017-Aug-19 01:30N 48°35' W 123°01'2 3.7
2017-Aug-19 01:00N 48°36' W 123°03'4 8.5
2017-Aug-19 00:30N 48°39' W 123°08'2 4.1
2017-Aug-19 00:00N 48°40' W 123°11'4 8.2
2017-Aug-18 23:29N 48°38' W 123°05'4 8.4
2017-Aug-18 23:00N 48°36' W 122°60'5 9.2
2017-Aug-18 22:30N 48°35' W 122°53'5 9.2
2017-Aug-18 22:00N 48°32' W 122°48'4 8.4
2017-Aug-18 21:30N 48°32' W 122°41'3 3.0
2017-Aug-18 20:21N 48°31' W 122°36'3 8.9
2017-Aug-18 20:00N 48°33' W 122°41'1 1.3
2017-Aug-18 19:28N 48°33' W 122°41'0 0.0
2017-Aug-18 19:00N 48°33' W 122°41'0 0.0
2017-Aug-18 18:30N 48°33' W 122°41'1 1.8
2017-Aug-18 17:59N 48°33' W 122°40'2 4.4
2017-Aug-18 17:25N 48°31' W 122°37'0 0.0
2017-Aug-18 16:55N 48°31' W 122°37'0 0.1
2017-Aug-18 16:30N 48°31' W 122°37'0 0.1
2017-Aug-18 16:00N 48°31' W 122°37'0 0.7
2017-Aug-18 15:30N 48°31' W 122°36'0 0.0
2017-Aug-18 14:58N 48°31' W 122°36'0 0.0
2017-Aug-18 14:29N 48°31' W 122°36'0 0.0
2017-Aug-18 13:30N 48°31' W 122°36'0 0.0
2017-Aug-18 13:00N 48°31' W 122°36'0 0.0
2017-Aug-18 12:30N 48°31' W 122°36'0 0.0
2017-Aug-18 11:58N 48°31' W 122°36'0 0.0
2017-Aug-18 11:30N 48°31' W 122°36'0 0.0
2017-Aug-18 11:00N 48°31' W 122°36'0 0.0
2017-Aug-18 10:30N 48°31' W 122°36'0 0.0
2017-Aug-18 10:00N 48°31' W 122°36'0 0.0
2017-Aug-18 09:29N 48°31' W 122°36'0 0.0
2017-Aug-18 09:00N 48°31' W 122°36'0 0.0
2017-Aug-18 08:30N 48°31' W 122°36'0 0.0
2017-Aug-18 08:01N 48°31' W 122°36'0 0.0
2017-Aug-18 07:30N 48°31' W 122°36'0 0.0
2017-Aug-18 07:00N 48°31' W 122°36'0 0.0
2017-Aug-18 06:30N 48°31' W 122°36'0 0.0
2017-Aug-18 06:00N 48°31' W 122°36'0 0.0
2017-Aug-18 05:30N 48°31' W 122°36'0 0.0
2017-Aug-18 05:00N 48°31' W 122°36'0 0.0
2017-Aug-18 03:47N 48°31' W 122°36'0 0.0
2017-Aug-18 03:30N 48°31' W 122°36'0 0.0
2017-Aug-18 03:00N 48°31' W 122°36'0 0.0
2017-Aug-18 02:30N 48°31' W 122°36'0 0.0
2017-Aug-18 02:00N 48°31' W 122°36'0 0.0
2017-Aug-18 01:30N 48°31' W 122°36'0 0.0
2017-Aug-18 01:00N 48°31' W 122°36'0 0.0
2017-Aug-18 00:30N 48°31' W 122°36'0 0.0
2017-Aug-18 00:00N 48°31' W 122°36'0 0.0
2017-Aug-17 23:30N 48°31' W 122°36'0 0.0
2017-Aug-17 23:00N 48°31' W 122°36'0 0.0
2017-Aug-17 22:29N 48°31' W 122°36'2 3.4
2017-Aug-17 21:59N 48°31' W 122°39'2 3.3
2017-Aug-17 21:17N 48°33' W 122°41'2 8.0
2017-Aug-17 21:00N 48°32' W 122°39'2 3.3
2017-Aug-17 20:30N 48°31' W 122°36'4 7.4
2017-Aug-17 20:00N 48°31' W 122°42'4 8.8
2017-Aug-17 19:30N 48°32' W 122°48'4 8.2
2017-Aug-17 19:01N 48°34' W 122°53'4 8.5
2017-Aug-17 18:30N 48°32' W 122°59'1 2.1
2017-Aug-17 18:00N 48°32' W 123°00'0 0.1
2017-Aug-17 17:30N 48°32' W 122°60'0 0.0
2017-Aug-17 17:00N 48°32' W 122°60'3 5.2
2017-Aug-17 16:30N 48°33' W 122°56'3 6.7
2017-Aug-17 16:00N 48°34' W 122°51'4 8.3
2017-Aug-17 15:30N 48°32' W 122°46'5 8.9
2017-Aug-17 15:00N 48°32' W 122°39'2 2.0
2017-Aug-17 14:07N 48°31' W 122°36'0 0.0
2017-Aug-17 13:43N 48°31' W 122°36'0 0.0
2017-Aug-17 13:25N 48°31' W 122°36'0 0.0
2017-Aug-17 12:49N 48°31' W 122°36'0 0.0
2017-Aug-17 12:25N 48°31' W 122°36'0 0.0
2017-Aug-17 11:55N 48°31' W 122°36'0 0.0
2017-Aug-17 11:07N 48°31' W 122°36'0 0.0
2017-Aug-17 10:55N 48°31' W 122°36'0 0.0
2017-Aug-17 10:13N 48°31' W 122°36'0 0.0
2017-Aug-17 09:43N 48°31' W 122°36'0 0.0
2017-Aug-17 09:19N 48°31' W 122°36'0 0.0
2017-Aug-17 08:55N 48°31' W 122°36'0 0.0
2017-Aug-17 07:49N 48°31' W 122°36'0 0.0
2017-Aug-17 07:25N 48°31' W 122°36'0 0.0
2017-Aug-17 06:49N 48°31' W 122°36'0 0.0
2017-Aug-17 06:07N 48°31' W 122°36'0 0.0
2017-Aug-17 04:49N 48°31' W 122°36'0 0.0
2017-Aug-17 04:25N 48°31' W 122°36'0 0.0
2017-Aug-17 03:13N 48°31' W 122°36'0 0.0
2017-Aug-17 03:00N 48°31' W 122°36'1 2.5
2017-Aug-17 02:30N 48°31' W 122°38'4 8.2
2017-Aug-17 02:00N 48°35' W 122°41'2 4.0
2017-Aug-17 01:30N 48°37' W 122°42'0 0.0
2017-Aug-17 01:00N 48°37' W 122°42'3 5.5
2017-Aug-17 00:30N 48°36' W 122°46'1 1.6
2017-Aug-17 00:00N 48°36' W 122°47'4 7.0
2017-Aug-16 23:30N 48°37' W 122°42'0 0.0
2017-Aug-16 22:59N 48°37' W 122°42'2 5.1
2017-Aug-16 22:30N 48°36' W 122°45'2 3.7
2017-Aug-16 22:00N 48°36' W 122°48'4 8.7
2017-Aug-16 21:30N 48°37' W 122°42'3 6.6
2017-Aug-16 21:00N 48°34' W 122°40'3 6.7
2017-Aug-16 20:30N 48°31' W 122°37'1 1.2
2017-Aug-16 20:00N 48°31' W 122°37'5 9.9
2017-Aug-16 19:30N 48°31' W 122°45'4 8.5
2017-Aug-16 19:00N 48°33' W 122°51'3 6.4
2017-Aug-16 18:30N 48°33' W 122°55'3 6.6
2017-Aug-16 18:00N 48°32' W 122°60'2 3.2
2017-Aug-16 17:30N 48°33' W 122°58'3 6.4
2017-Aug-16 17:00N 48°33' W 122°53'1 2.0
2017-Aug-16 16:30N 48°33' W 122°55'4 7.4
2017-Aug-16 16:00N 48°32' W 122°60'3 6.2
2017-Aug-16 15:30N 48°33' W 122°56'3 6.6
2017-Aug-16 15:00N 48°33' W 122°51'4 7.6
2017-Aug-16 14:30N 48°32' W 122°45'4 8.6
2017-Aug-16 14:00N 48°32' W 122°39'2 3.2
2017-Aug-16 13:30N 48°31' W 122°36'0 0.0
2017-Aug-16 12:59N 48°31' W 122°36'0 0.0
2017-Aug-16 12:29N 48°31' W 122°36'0 0.0
2017-Aug-16 11:59N 48°31' W 122°36'0 0.0
2017-Aug-16 11:29N 48°31' W 122°36'0 0.0
2017-Aug-16 09:47N 48°31' W 122°36'0 0.0
2017-Aug-16 09:23N 48°31' W 122°36'0 0.0
2017-Aug-16 08:59N 48°31' W 122°36'0 0.0
2017-Aug-16 08:17N 48°31' W 122°36'0 0.0
2017-Aug-16 07:47N 48°31' W 122°36'0 0.0
2017-Aug-16 06:02N 48°31' W 122°36'0 0.0
2017-Aug-16 05:53N 48°31' W 122°36'0 0.0
2017-Aug-16 05:29N 48°31' W 122°36'0 0.0
2017-Aug-16 04:05N 48°31' W 122°36'0 0.1
2017-Aug-16 03:59N 48°31' W 122°36'0 0.0
2017-Aug-16 03:20N 48°31' W 122°36'0 0.0
2017-Aug-16 00:29N 48°31' W 122°36'0 0.0
2017-Aug-16 00:01N 48°31' W 122°36'3 5.0
2017-Aug-15 23:28N 48°32' W 122°40'4 7.7
2017-Aug-15 23:01N 48°34' W 122°45'4 7.5
2017-Aug-15 22:30N 48°36' W 122°49'3 6.3
2017-Aug-15 22:01N 48°33' W 122°50'3 3.5
2017-Aug-15 21:17N 48°31' W 122°50'2 8.8
2017-Aug-15 21:00N 48°33' W 122°50'3 5.2
2017-Aug-15 20:31N 48°36' W 122°49'4 8.5
2017-Aug-15 20:00N 48°32' W 122°50'1 1.7
2017-Aug-15 19:30N 48°31' W 122°50'1 2.4
2017-Aug-15 19:00N 48°32' W 122°50'4 8.5
2017-Aug-15 18:31N 48°36' W 122°49'0 0.4
2017-Aug-15 18:00N 48°36' W 122°49'0 0.0
2017-Aug-15 17:31N 48°36' W 122°49'1 2.0
2017-Aug-15 17:00N 48°35' W 122°49'4 6.5
2017-Aug-15 16:19N 48°31' W 122°50'3 8.2
2017-Aug-15 16:00N 48°33' W 122°50'3 5.9
2017-Aug-15 15:30N 48°36' W 122°49'1 2.5
2017-Aug-15 15:01N 48°35' W 122°49'2 4.7
2017-Aug-15 14:30N 48°34' W 122°46'4 8.5
2017-Aug-15 14:00N 48°32' W 122°40'3 4.9
2017-Aug-15 13:27N 48°31' W 122°36'0 0.0
2017-Aug-15 12:48N 48°31' W 122°36'0 0.0
2017-Aug-15 12:12N 48°31' W 122°36'0 0.0
2017-Aug-15 11:55N 48°31' W 122°36'0 0.0
2017-Aug-15 11:30N 48°31' W 122°36'0 0.0
2017-Aug-15 11:00N 48°31' W 122°36'0 0.0
2017-Aug-15 10:30N 48°31' W 122°36'0 0.0
2017-Aug-15 07:15N 48°31' W 122°36'0 0.0
2017-Aug-15 06:54N 48°31' W 122°36'0 0.0
2017-Aug-15 05:39N 48°31' W 122°36'0 0.0
2017-Aug-15 05:30N 48°31' W 122°36'0 0.0
2017-Aug-15 04:54N 48°31' W 122°36'0 0.0
2017-Aug-15 04:24N 48°31' W 122°36'0 0.0
2017-Aug-15 03:54N 48°31' W 122°36'0 0.0
2017-Aug-15 03:30N 48°31' W 122°36'0 0.0
2017-Aug-15 03:00N 48°31' W 122°36'0 0.0
2017-Aug-15 02:30N 48°31' W 122°36'0 0.0
2017-Aug-15 02:00N 48°31' W 122°36'0 0.0
2017-Aug-15 01:24N 48°31' W 122°36'0 0.0
2017-Aug-15 00:54N 48°31' W 122°36'0 0.0
2017-Aug-14 23:42N 48°31' W 122°36'0 0.0
2017-Aug-14 23:12N 48°31' W 122°36'0 0.0
2017-Aug-14 23:00N 48°31' W 122°36'0 0.0
2017-Aug-14 22:18N 48°31' W 122°36'0 0.0
2017-Aug-14 22:00N 48°31' W 122°36'0 0.0
2017-Aug-14 21:30N 48°31' W 122°36'0 0.0
2017-Aug-14 18:54N 48°31' W 122°36'0 0.0
2017-Aug-14 18:30N 48°31' W 122°36'0 0.0
2017-Aug-14 17:56N 48°31' W 122°36'0 0.0
2017-Aug-14 17:30N 48°31' W 122°36'1 2.6
2017-Aug-14 17:00N 48°31' W 122°38'4 9.2
2017-Aug-14 16:31N 48°31' W 122°45'3 6.5
2017-Aug-14 16:01N 48°31' W 122°50'2 4.1
2017-Aug-14 15:30N 48°33' W 122°50'3 6.8
2017-Aug-14 15:00N 48°36' W 122°49'3 5.9
2017-Aug-14 14:31N 48°34' W 122°46'3 6.5
2017-Aug-14 14:00N 48°33' W 122°41'4 7.1
2017-Aug-14 13:29N 48°31' W 122°36'0 0.0
2017-Aug-14 12:47N 48°31' W 122°36'0 0.0
2017-Aug-14 12:29N 48°31' W 122°36'0 0.0
2017-Aug-14 11:59N 48°31' W 122°36'0 0.0
2017-Aug-14 11:29N 48°31' W 122°36'0 0.0
2017-Aug-14 10:53N 48°31' W 122°36'0 0.0
2017-Aug-14 10:29N 48°31' W 122°36'0 0.0
2017-Aug-14 09:53N 48°31' W 122°36'0 0.0
2017-Aug-14 09:17N 48°31' W 122°36'0 0.0
2017-Aug-14 08:41N 48°31' W 122°36'0 0.0
2017-Aug-14 08:17N 48°31' W 122°36'0 0.0
2017-Aug-14 07:29N 48°31' W 122°36'0 0.0
2017-Aug-14 06:59N 48°31' W 122°36'0 0.0
2017-Aug-14 06:23N 48°31' W 122°36'0 0.0
2017-Aug-14 05:53N 48°31' W 122°36'0 0.0
2017-Aug-14 05:19N 48°31' W 122°36'0 0.0
2017-Aug-14 04:58N 48°31' W 122°36'0 0.0
2017-Aug-14 04:22N 48°31' W 122°36'0 0.0
2017-Aug-14 03:43N 48°31' W 122°36'0 0.0
2017-Aug-14 01:58N 48°31' W 122°36'0 0.0
2017-Aug-14 01:22N 48°31' W 122°36'0 0.0
2017-Aug-13 23:58N 48°31' W 122°36'0 0.0
2017-Aug-13 22:46N 48°31' W 122°36'0 0.0
2017-Aug-13 22:28N 48°31' W 122°36'0 0.0
2017-Aug-13 21:58N 48°31' W 122°36'0 0.0
2017-Aug-13 21:28N 48°31' W 122°36'0 0.0
2017-Aug-13 20:52N 48°31' W 122°36'0 0.0
2017-Aug-13 20:22N 48°31' W 122°36'0 0.0
2017-Aug-13 19:46N 48°31' W 122°36'0 0.0
2017-Aug-13 19:28N 48°31' W 122°36'0 0.0
2017-Aug-13 18:58N 48°31' W 122°36'0 0.0
2017-Aug-13 18:28N 48°31' W 122°36'0 0.0
2017-Aug-13 17:58N 48°31' W 122°36'0 0.0
2017-Aug-13 17:28N 48°31' W 122°36'0 0.0
2017-Aug-13 16:58N 48°31' W 122°36'0 0.0
2017-Aug-13 16:28N 48°31' W 122°36'0 0.0
2017-Aug-13 15:58N 48°31' W 122°36'0 0.0
2017-Aug-13 15:28N 48°31' W 122°36'0 0.0
2017-Aug-13 14:58N 48°31' W 122°36'0 0.0
2017-Aug-13 14:28N 48°31' W 122°36'0 0.0
2017-Aug-13 13:58N 48°31' W 122°36'0 0.0
2017-Aug-13 13:28N 48°31' W 122°36'0 0.0
2017-Aug-13 12:58N 48°31' W 122°36'0 0.0
2017-Aug-13 12:28N 48°31' W 122°36'0 0.0
2017-Aug-13 11:58N 48°31' W 122°36'0 0.0
2017-Aug-13 11:28N 48°31' W 122°36'0 0.0
2017-Aug-13 10:58N 48°31' W 122°36'0 0.0
2017-Aug-13 10:28N 48°31' W 122°36'0 0.0
2017-Aug-13 09:58N 48°31' W 122°36'0 0.0
2017-Aug-13 09:28N 48°31' W 122°36'0 0.0
2017-Aug-13 08:52N 48°31' W 122°36'0 0.0
2017-Aug-13 08:28N 48°31' W 122°36'0 0.0
2017-Aug-13 07:58N 48°31' W 122°36'0 0.0
2017-Aug-13 07:16N 48°31' W 122°36'0 0.0
2017-Aug-13 06:58N 48°31' W 122°36'0 0.0
2017-Aug-13 06:28N 48°31' W 122°36'0 0.0
2017-Aug-13 05:58N 48°31' W 122°36'0 0.0
2017-Aug-13 05:28N 48°31' W 122°36'0 0.0
2017-Aug-13 04:58N 48°31' W 122°36'0 0.0
2017-Aug-13 04:28N 48°31' W 122°36'0 0.0
2017-Aug-13 03:58N 48°31' W 122°36'0 0.0
2017-Aug-13 03:28N 48°31' W 122°36'0 0.0
2017-Aug-13 02:58N 48°31' W 122°36'0 0.0
2017-Aug-13 02:10N 48°31' W 122°36'0 0.0
2017-Aug-13 01:58N 48°31' W 122°36'0 0.0
2017-Aug-13 01:28N 48°31' W 122°36'0 0.0
2017-Aug-13 00:52N 48°31' W 122°36'0 0.0
2017-Aug-13 00:28N 48°31' W 122°36'0 0.0
2017-Aug-12 23:58N 48°31' W 122°36'0 0.0
2017-Aug-12 23:28N 48°31' W 122°36'0 0.0
2017-Aug-12 22:58N 48°31' W 122°36'0 0.0
2017-Aug-12 22:28N 48°31' W 122°36'0 0.0
2017-Aug-12 21:58N 48°31' W 122°36'0 0.0
2017-Aug-12 21:28N 48°31' W 122°36'0 0.0
2017-Aug-12 20:52N 48°31' W 122°36'0 0.0
2017-Aug-12 20:28N 48°31' W 122°36'0 0.0
2017-Aug-12 19:58N 48°31' W 122°36'0 0.0
2017-Aug-12 19:22N 48°31' W 122°36'0 0.0
2017-Aug-12 18:58N 48°31' W 122°36'0 0.0
2017-Aug-12 18:28N 48°31' W 122°36'0 0.0
2017-Aug-12 17:58N 48°31' W 122°36'0 0.0
2017-Aug-12 17:28N 48°31' W 122°36'0 0.0
2017-Aug-12 16:58N 48°31' W 122°36'0 0.0
2017-Aug-12 16:28N 48°31' W 122°36'0 0.0
2017-Aug-12 15:58N 48°31' W 122°36'0 0.0
2017-Aug-12 15:28N 48°31' W 122°36'0 0.0
2017-Aug-12 14:58N 48°31' W 122°36'0 0.0
2017-Aug-12 14:28N 48°31' W 122°36'0 0.0
2017-Aug-12 13:58N 48°31' W 122°36'0 0.0
2017-Aug-12 13:28N 48°31' W 122°36'0 0.0
2017-Aug-12 12:58N 48°31' W 122°36'0 0.0
2017-Aug-12 12:28N 48°31' W 122°36'0 0.0
2017-Aug-12 11:58N 48°31' W 122°36'0 0.0
2017-Aug-12 11:28N 48°31' W 122°36'0 0.0
2017-Aug-12 10:58N 48°31' W 122°36'0 0.0
2017-Aug-12 10:28N 48°31' W 122°36'0 0.0
2017-Aug-12 09:58N 48°31' W 122°36'0 0.0
2017-Aug-12 09:28N 48°31' W 122°36'0 0.0
2017-Aug-12 08:58N 48°31' W 122°36'0 0.0
2017-Aug-12 08:28N 48°31' W 122°36'0 0.0
2017-Aug-12 07:58N 48°31' W 122°36'0 0.0
2017-Aug-12 07:28N 48°31' W 122°36'0 0.0
2017-Aug-12 06:58N 48°31' W 122°36'0 0.0
2017-Aug-12 06:22N 48°31' W 122°36'0 0.0
2017-Aug-12 05:58N 48°31' W 122°36'0 0.0
2017-Aug-12 05:28N 48°31' W 122°36'0 0.0
2017-Aug-12 04:58N 48°31' W 122°36'0 0.0
2017-Aug-12 04:22N 48°31' W 122°36'0 0.0
2017-Aug-12 03:58N 48°31' W 122°36'0 0.0
2017-Aug-12 03:22N 48°31' W 122°36'0 0.0
2017-Aug-12 02:40N 48°31' W 122°36'0 0.0
2017-Aug-12 02:28N 48°31' W 122°36'0 0.0
2017-Aug-12 01:52N 48°31' W 122°36'0 0.0
2017-Aug-12 01:28N 48°31' W 122°36'0 0.0
2017-Aug-12 00:58N 48°31' W 122°36'0 0.0
2017-Aug-12 00:28N 48°31' W 122°36'0 0.0
2017-Aug-12 00:00N 48°31' W 122°36'0 0.0
2017-Aug-11 23:30N 48°31' W 122°36'0 0.0
2017-Aug-11 23:00N 48°31' W 122°36'0 0.0
2017-Aug-11 22:30N 48°31' W 122°36'0 0.0
2017-Aug-11 22:00N 48°31' W 122°36'0 0.0
2017-Aug-11 21:30N 48°31' W 122°36'0 0.0
2017-Aug-11 21:00N 48°31' W 122°36'0 0.0
2017-Aug-11 20:30N 48°31' W 122°36'0 0.8
2017-Aug-11 20:00N 48°31' W 122°37'3 6.5
2017-Aug-11 19:30N 48°33' W 122°41'0 0.0
2017-Aug-11 19:00N 48°33' W 122°41'0 0.0
2017-Aug-11 18:30N 48°33' W 122°41'1 2.0
2017-Aug-11 18:00N 48°32' W 122°40'2 4.9
2017-Aug-11 17:30N 48°31' W 122°37'0 0.1
2017-Aug-11 17:00N 48°31' W 122°37'0 0.0
2017-Aug-11 16:30N 48°31' W 122°37'0 0.6
2017-Aug-11 16:00N 48°31' W 122°36'0 0.2
2017-Aug-11 15:30N 48°31' W 122°36'0 0.0
2017-Aug-11 15:00N 48°31' W 122°36'0 0.0
2017-Aug-11 14:00N 48°31' W 122°36'0 0.0
2017-Aug-11 13:30N 48°31' W 122°36'0 0.0
2017-Aug-11 13:00N 48°31' W 122°36'0 0.0
2017-Aug-11 12:30N 48°31' W 122°36'0 0.0
2017-Aug-11 12:00N 48°31' W 122°36'0 0.0
2017-Aug-11 11:30N 48°31' W 122°36'0 0.0
2017-Aug-11 11:00N 48°31' W 122°36'0 0.0
2017-Aug-11 10:30N 48°31' W 122°36'0 0.0
2017-Aug-11 10:00N 48°31' W 122°36'0 0.0
2017-Aug-11 09:30N 48°31' W 122°36'0 0.0
2017-Aug-11 09:00N 48°31' W 122°36'0 0.0
2017-Aug-11 08:30N 48°31' W 122°36'0 0.0
2017-Aug-11 08:00N 48°31' W 122°36'0 0.0
2017-Aug-11 07:30N 48°31' W 122°36'0 0.0
2017-Aug-11 07:00N 48°31' W 122°36'0 0.0
2017-Aug-11 06:30N 48°31' W 122°36'0 0.0
2017-Aug-11 06:00N 48°31' W 122°36'0 0.0
2017-Aug-11 05:30N 48°31' W 122°36'0 0.0
2017-Aug-11 05:00N 48°31' W 122°36'0 0.0
2017-Aug-11 04:30N 48°31' W 122°36'0 0.0
2017-Aug-11 04:00N 48°31' W 122°36'0 0.0
2017-Aug-11 03:30N 48°31' W 122°36'0 0.0
2017-Aug-11 03:00N 48°31' W 122°36'0 0.0
2017-Aug-11 02:30N 48°31' W 122°36'0 0.0
2017-Aug-11 02:00N 48°31' W 122°36'0 0.0
2017-Aug-11 01:30N 48°31' W 122°36'0 0.0
2017-Aug-11 01:00N 48°31' W 122°36'0 0.0
2017-Aug-11 00:30N 48°31' W 122°36'0 0.0
2017-Aug-11 00:00N 48°31' W 122°36'0 0.0
2017-Aug-10 23:30N 48°31' W 122°36'0 0.0
2017-Aug-10 23:00N 48°31' W 122°36'0 0.0
2017-Aug-10 22:30N 48°31' W 122°36'0 0.0
2017-Aug-10 22:00N 48°31' W 122°36'0 0.0
2017-Aug-10 21:30N 48°31' W 122°36'0 0.0
2017-Aug-10 21:00N 48°31' W 122°36'0 0.0
2017-Aug-10 20:30N 48°31' W 122°36'0 0.0
2017-Aug-10 20:00N 48°31' W 122°36'0 0.0
2017-Aug-10 19:30N 48°31' W 122°36'0 0.0
2017-Aug-10 19:00N 48°31' W 122°36'0 0.1
2017-Aug-10 18:30N 48°31' W 122°36'1 2.8
2017-Aug-10 18:00N 48°31' W 122°38'5 9.7
2017-Aug-10 17:30N 48°36' W 122°41'1 2.4
2017-Aug-10 17:00N 48°37' W 122°42'0 0.0
2017-Aug-10 16:30N 48°37' W 122°42'0 0.0
2017-Aug-10 16:00N 48°37' W 122°42'0 0.0
2017-Aug-10 15:30N 48°37' W 122°42'0 0.0
2017-Aug-10 15:00N 48°37' W 122°42'4 7.9
2017-Aug-10 14:30N 48°33' W 122°40'3 4.1
2017-Aug-10 13:46N 48°31' W 122°36'0 0.0
2017-Aug-10 12:19N 48°31' W 122°36'0 0.0
2017-Aug-10 11:55N 48°31' W 122°36'0 0.0
2017-Aug-09 21:58N 48°31' W 122°36'3 6.1
2017-Aug-09 21:30N 48°32' W 122°40'4 8.8
2017-Aug-09 21:00N 48°32' W 122°47'4 8.2
2017-Aug-09 20:30N 48°34' W 122°52'4 8.0
2017-Aug-09 20:00N 48°33' W 122°58'2 3.5
2017-Aug-09 19:30N 48°32' W 122°60'0 0.0
2017-Aug-09 19:00N 48°32' W 122°60'0 0.0
2017-Aug-09 18:30N 48°32' W 122°60'0 0.0
2017-Aug-09 18:00N 48°32' W 122°60'0 0.7
2017-Aug-09 17:30N 48°32' W 122°60'4 7.9
2017-Aug-09 17:00N 48°34' W 122°55'4 7.1
2017-Aug-09 16:30N 48°33' W 122°49'4 7.2
2017-Aug-09 16:00N 48°32' W 122°44'  

Dump ship's entire track history